This is the latest recevied weather packets stored in our database for station/object FW0690. If no packets are shown the sender has not sent any weather packets the latest 10 day(s).
| Time | Temp. | Humidity | Pressure | Rain* | Wind** | Luminosity | Snow |
|---|---|---|---|---|---|---|---|
| 1777713635 | 16.11° C | 36% | 1021 hPa | - | - | 57 W/m² | - |
| 1777713275 | 16.11° C | 36% | 1021 hPa | - | - | 46 W/m² | - |
| 1777712915 | 17.22° C | 37% | 1021 hPa | - | - | 123 W/m² | - |
| 1777712555 | 16.11° C | 38% | 1021.1 hPa | - | - | 61 W/m² | - |
| 1777712195 | 15.56° C | 38% | 1021 hPa | - | - | 60 W/m² | - |
| 1777711835 | 15° C | 38% | 1021.2 hPa | - | - | 56 W/m² | - |
| 1777711475 | 14.44° C | 37% | 1021.3 hPa | - | - | 39 W/m² | - |
| 1777711115 | 15° C | 37% | 1021.3 hPa | - | - | 39 W/m² | - |
| 1777710755 | 15.56° C | 37% | 1021.2 hPa | - | - | 45 W/m² | - |
| 1777710395 | 15.56° C | 38% | 1021.2 hPa | - | - | 42 W/m² | - |
| 1777710035 | 15.56° C | 38% | 1021.3 hPa | - | - | 44 W/m² | - |
| 1777709675 | 15.56° C | 38% | 1021.3 hPa | - | - | 46 W/m² | - |
| 1777709315 | 15.56° C | 39% | 1021.3 hPa | - | - | 45 W/m² | - |
| 1777708955 | 15.56° C | 39% | 1021.3 hPa | - | - | 46 W/m² | - |
| 1777708595 | 15° C | 40% | 1021.4 hPa | - | - | 49 W/m² | - |
| 1777708235 | 15° C | 41% | 1021.4 hPa | - | - | 46 W/m² | - |
| 1777707875 | 15° C | 42% | 1021.4 hPa | - | - | 41 W/m² | - |
| 1777707515 | 14.44° C | 43% | 1021.4 hPa | - | - | 40 W/m² | - |
| 1777707155 | 13.89° C | 44% | 1021.5 hPa | - | - | 37 W/m² | - |
| 1777706795 | 13.89° C | 45% | 1021.5 hPa | - | - | 35 W/m² | - |
| 1777706435 | 13.33° C | 46% | 1021.6 hPa | - | - | 37 W/m² | - |
| 1777706075 | 13.33° C | 47% | 1021.6 hPa | - | - | 35 W/m² | - |
| 1777705715 | 13.33° C | 48% | 1021.6 hPa | - | - | 36 W/m² | - |
| 1777705355 | 13.33° C | 49% | 1021.6 hPa | - | - | 33 W/m² | - |
| 1777704995 | 13.33° C | 49% | 1021.6 hPa | - | - | 33 W/m² | - |
* Rain since midnight (hover to see other rain measurements)
** Current wind speed in m/s (hover to see current wind gust speed)